Time;durP1;ratioP1;P1;durP2;ratioP2;P2;SDS_P1;SDS_P2;PMS_P1;PMS_P2;Temp;Humidity;BMP_temperature;BMP_pressure;BME280_temperature;BME280_humidity;BME280_pressure;Samples;Min_cycle;Max_cycle;Signal;HPM_P1;HPM_P2
2021/12/15 00:01:46;;;;;;;44.80;24.15;;;;;;;8.84;93.89;102909.44;5116325;28;20031;-64
2021/12/15 00:04:13;;;;;;;51.83;24.55;;;;;;;8.82;94.40;102903.16;5116330;28;20030;-64
2021/12/15 00:06:39;;;;;;;41.28;24.17;;;;;;;8.82;93.86;102892.59;5115050;28;20427;-64
2021/12/15 00:09:08;;;;;;;43.85;23.30;;;;;;;8.82;94.17;102891.72;5116603;28;20030;-64
2021/12/15 00:11:36;;;;;;;43.35;22.80;;;;;;;8.80;94.38;102894.28;5116324;28;20032;-63
2021/12/15 00:14:30;;;;;;;46.50;22.85;;;;;;;8.80;94.54;102890.75;5116213;28;20032;-64
2021/12/15 00:16:55;;;;;;;42.17;23.52;;;;;;;8.76;94.45;102885.31;5112381;28;20050;-64
2021/12/15 00:19:21;;;;;;;42.72;23.25;;;;;;;8.76;94.49;102887.94;5116264;28;20024;-64
2021/12/15 00:21:46;;;;;;;47.33;23.85;;;;;;;8.75;94.66;102879.97;5116369;28;20023;-64
2021/12/15 00:24:12;;;;;;;45.60;23.40;;;;;;;8.78;94.85;102891.56;5116285;28;20019;-64
2021/12/15 00:26:42;;;;;;;43.58;24.33;;;;;;;8.76;94.69;102877.41;5115969;28;20032;-64
2021/12/15 00:29:08;;;;;;;44.88;23.77;;;;;;;8.77;94.48;102884.47;5116201;28;20044;-64
2021/12/15 00:31:35;;;;;;;46.80;24.35;;;;;;;8.78;95.11;102882.78;5115756;28;20069;-64
2021/12/15 00:34:04;;;;;;;44.83;24.05;;;;;;;8.78;94.85;102885.41;5115883;28;20031;-64
2021/12/15 00:36:30;;;;;;;46.75;24.00;;;;;;;8.82;94.69;102886.44;5115908;28;20028;-63
2021/12/15 00:38:55;;;;;;;48.38;24.15;;;;;;;8.83;94.59;102889.16;5115743;28;20031;-64
2021/12/15 00:41:21;;;;;;;45.42;24.35;;;;;;;8.81;94.36;102885.53;5115833;28;20464;-64
2021/12/15 00:43:48;;;;;;;50.63;25.77;;;;;;;8.75;94.53;102872.97;5115618;28;20093;-64
2021/12/15 00:46:14;;;;;;;44.78;23.55;;;;;;;8.81;94.66;102876.72;5115630;28;20031;-64
2021/12/15 00:48:40;;;;;;;46.45;25.90;;;;;;;8.79;94.71;102871.38;5097280;28;20114;-64
2021/12/15 00:51:06;;;;;;;46.40;24.55;;;;;;;8.76;94.92;102879.13;5115733;28;20027;-64
2021/12/15 00:53:31;;;;;;;44.92;25.20;;;;;;;8.80;95.00;102880.19;5115241;28;20063;-63
2021/12/15 00:55:57;;;;;;;46.22;24.95;;;;;;;8.81;94.74;102869.72;5115065;28;20176;-64
2021/12/15 00:58:28;;;;;;;45.95;25.05;;;;;;;8.79;95.03;102868.75;5115282;28;20026;-64
2021/12/15 01:00:58;;;;;;;48.83;24.38;;;;;;;8.76;94.58;102868.59;5115104;28;20020;-64
2021/12/15 01:03:25;;;;;;;48.70;25.98;;;;;;;8.73;94.96;102869.31;5115485;28;20023;-64
2021/12/15 01:05:56;;;;;;;47.50;23.67;;;;;;;8.75;94.95;102874.69;5115374;28;20115;-64
2021/12/15 01:08:27;;;;;;;48.72;25.13;;;;;;;8.73;95.31;102877.22;5115141;28;20028;-64
2021/12/15 01:11:23;;;;;;;48.90;24.87;;;;;;;8.72;95.16;102878.06;5115320;28;20090;-63
2021/12/15 01:22:30;;;;;;;48.13;24.35;;;;;;;8.75;94.52;102887.88;5032267;28;20507;-64
2021/12/15 01:25:23;;;;;;;50.97;26.23;;;;;;;8.71;95.29;102891.19;5032149;28;20033;-64
2021/12/15 01:27:50;;;;;;;45.33;23.83;;;;;;;8.73;94.92;102890.41;5031776;28;20037;-64
2021/12/15 01:30:19;;;;;;;48.35;24.92;;;;;;;8.72;94.85;102892.97;5032080;28;20044;-64
2021/12/15 01:32:45;;;;;;;47.38;25.17;;;;;;;8.69;95.01;102879.63;5032300;28;20132;-64
2021/12/15 01:35:11;;;;;;;49.33;25.05;;;;;;;8.70;95.16;102881.47;5032285;28;20053;-64
2021/12/15 01:37:37;;;;;;;50.25;24.55;;;;;;;8.69;95.47;102888.47;5031906;28;20064;-64
2021/12/15 01:40:05;;;;;;;47.65;24.50;;;;;;;8.70;94.98;102882.38;5031903;28;20056;-64
2021/12/15 01:42:35;;;;;;;45.97;24.77;;;;;;;8.66;95.13;102890.94;5031890;28;20443;-64
2021/12/15 01:47:45;;;;;;;51.42;25.85;;;;;;;8.66;95.31;102893.59;5031786;28;20048;-64
2021/12/15 01:50:11;;;;;;;50.90;25.70;;;;;;;8.66;95.32;102892.69;5031823;28;20030;-64
2021/12/15 01:52:40;;;;;;;51.50;24.98;;;;;;;8.65;95.63;102888.22;5031685;28;20125;-64
2021/12/15 01:55:10;;;;;;;50.75;24.25;;;;;;;8.65;95.52;102882.94;5036492;28;20476;-64
2021/12/15 01:57:39;;;;;;;53.92;26.85;;;;;;;8.64;95.58;102895.22;5061258;28;20045;-64
2021/12/15 02:00:16;;;;;;;53.40;24.92;;;;;;;8.63;95.26;102888.16;5094145;28;20028;-64
2021/12/15 02:02:42;;;;;;;52.15;25.80;;;;;;;8.65;95.64;102893.47;5093820;28;20111;-64
2021/12/15 02:05:08;;;;;;;53.03;25.25;;;;;;;8.64;95.45;102904.84;5094012;28;20102;-64
2021/12/15 02:07:34;;;;;;;51.45;26.13;;;;;;;8.66;95.37;102903.22;5093675;28;20032;-64
2021/12/15 02:12:33;;;;;;;55.95;25.77;;;;;;;8.66;95.20;102904.13;5093791;28;20107;-64
2021/12/15 02:15:00;;;;;;;51.28;25.27;;;;;;;8.65;95.31;102907.59;5093462;28;20028;-63
2021/12/15 02:17:26;;;;;;;50.45;24.17;;;;;;;8.67;95.39;102908.56;5093921;28;20165;-62
2021/12/15 02:19:52;;;;;;;52.58;24.63;;;;;;;8.66;95.42;102911.13;5092719;28;20494;-63
2021/12/15 02:22:17;;;;;;;52.83;24.73;;;;;;;8.68;95.69;102920.00;5092608;28;20065;-63
2021/12/15 02:24:46;;;;;;;54.30;25.10;;;;;;;8.70;94.90;102910.47;5092960;28;20028;-64
2021/12/15 02:27:13;;;;;;;53.15;24.50;;;;;;;8.67;95.18;102915.56;5093534;28;20154;-63
2021/12/15 02:29:42;;;;;;;49.17;24.30;;;;;;;8.67;95.62;102915.56;5074537;28;20031;-64
2021/12/15 02:32:30;;;;;;;62.72;28.02;;;;;;;8.65;95.39;102911.94;5093230;28;20499;-64
2021/12/15 02:37:40;;;;;;;53.22;24.17;;;;;;;8.64;95.51;102904.84;5093263;28;20035;-64
2021/12/15 02:40:10;;;;;;;54.55;24.42;;;;;;;8.68;95.73;102905.09;5093221;28;20024;-63
2021/12/15 02:42:40;;;;;;;57.38;25.30;;;;;;;8.70;95.35;102913.09;5093454;28;20434;-64
2021/12/15 02:45:08;;;;;;;53.60;24.63;;;;;;;8.69;95.07;102912.19;5093176;28;20028;-64
2021/12/15 02:47:34;;;;;;;51.78;23.80;;;;;;;8.67;95.34;102902.38;5093267;28;20024;-64
2021/12/15 02:50:02;;;;;;;57.03;26.50;;;;;;;8.67;95.62;102908.56;5093063;28;20035;-64
2021/12/15 02:52:28;;;;;;;57.35;25.55;;;;;;;8.68;95.53;102904.19;5092821;28;20028;-64
2021/12/15 02:54:53;;;;;;;50.17;24.20;;;;;;;8.69;95.47;102906.94;5094319;28;20466;-64
2021/12/15 02:57:19;;;;;;;56.72;24.92;;;;;;;8.69;95.25;102909.56;5113298;28;20122;-64
2021/12/15 03:00:46;;;;;;;58.75;26.48;;;;;;;8.65;95.30;102902.31;5113520;28;20185;-64
2021/12/15 03:05:58;;;;;;;52.30;23.50;;;;;;;8.69;95.36;102914.84;5113655;28;20046;-64
2021/12/15 03:08:20;;;;;;;51.47;23.88;;;;;;;8.67;95.89;102905.94;5109162;28;20031;-64
2021/12/15 03:16:20;;;;;;;51.00;23.38;;;;;;;8.71;95.84;102909.63;5113534;28;20122;-64
2021/12/15 03:18:47;;;;;;;54.08;26.40;;;;;;;8.67;95.73;102902.38;5113295;28;20027;-64
2021/12/15 03:21:25;;;;;;;52.03;23.90;;;;;;;8.69;95.89;102904.28;5095063;28;20024;-64
2021/12/15 03:23:56;;;;;;;51.15;23.30;;;;;;;8.69;95.61;102906.00;5113389;28;20034;-64
2021/12/15 03:26:34;;;;;;;49.83;23.60;;;;;;;8.68;95.56;102904.19;5113269;28;20103;-64
2021/12/15 03:37:22;;;;;;;47.95;23.08;;;;;;;8.69;95.64;102896.38;5113121;28;20035;-64
2021/12/15 03:40:16;;;;;;;58.88;25.17;;;;;;;8.71;95.92;102907.00;5113073;28;20028;-64
2021/12/15 03:42:53;;;;;;;57.22;23.75;;;;;;;8.72;95.54;102903.53;5114987;28;20050;-64
2021/12/15 03:45:34;;;;;;;48.75;22.13;;;;;;;8.70;95.75;102900.81;5116870;28;20513;-63
2021/12/15 03:48:05;;;;;;;53.92;24.63;;;;;;;8.67;95.86;102908.56;5116685;28;20137;-64
2021/12/15 03:50:31;;;;;;;51.13;24.17;;;;;;;8.69;96.16;102909.56;5116706;28;20495;-64
2021/12/15 03:52:57;;;;;;;52.80;22.40;;;;;;;8.69;95.82;102906.00;5116282;28;20031;-64
2021/12/15 03:55:26;;;;;;;51.85;22.98;;;;;;;8.69;96.20;102908.63;5116456;28;20117;-64
2021/12/15 03:57:52;;;;;;;47.92;21.77;;;;;;;8.69;96.23;102914.84;5116697;28;20155;-64
2021/12/15 04:00:19;;;;;;;49.75;22.90;;;;;;;8.71;96.08;102907.00;5116588;28;20115;-64
2021/12/15 04:02:46;;;;;;;49.15;22.52;;;;;;;8.71;96.08;102910.53;5116392;28;20028;-66
2021/12/15 04:05:13;;;;;;;46.38;21.73;;;;;;;8.72;96.17;102925.50;5116464;28;20043;-64
2021/12/15 04:07:39;;;;;;;45.38;21.73;;;;;;;8.72;95.91;102922.88;5116262;28;20058;-64
2021/12/15 04:10:08;;;;;;;44.45;21.42;;;;;;;8.76;95.50;102923.94;5116310;28;20031;-64
2021/12/15 04:12:33;;;;;;;45.67;21.52;;;;;;;8.77;95.61;102923.09;5116275;28;20465;-64
2021/12/15 04:15:25;;;;;;;44.67;20.88;;;;;;;8.80;95.54;102932.91;5116269;28;20057;-64
2021/12/15 04:17:53;;;;;;;47.45;20.88;;;;;;;8.77;95.47;102921.38;5116065;28;20020;-64
2021/12/15 04:20:21;;;;;;;46.80;21.90;;;;;;;8.76;95.74;102913.41;5097737;28;20059;-64
2021/12/15 04:22:47;;;;;;;48.47;22.42;;;;;;;8.77;95.73;102920.47;5116071;28;20114;-64
2021/12/15 04:25:18;;;;;;;46.72;21.75;;;;;;;8.75;95.67;102927.41;5116081;28;20024;-64
2021/12/15 04:28:01;;;;;;;48.15;21.48;;;;;;;8.76;96.01;102924.84;5115830;28;20106;-63
2021/12/15 04:30:27;;;;;;;;;;;;;;;8.82;95.27;102928.63;5116325;28;20102;-64
2021/12/15 04:32:56;;;;;;;50.40;21.25;;;;;;;8.76;95.50;102927.47;5115588;28;19966;-64
2021/12/15 04:35:22;;;;;;;38.78;19.30;;;;;;;8.74;95.64;102931.78;5115822;28;20028;-64
2021/12/15 04:37:48;;;;;;;46.47;21.67;;;;;;;8.76;95.52;102935.38;5115782;28;20034;-64
2021/12/15 04:40:16;;;;;;;45.30;21.58;;;;;;;8.74;96.00;102937.06;5115783;28;20461;-64
2021/12/15 04:42:44;;;;;;;43.70;20.83;;;;;;;8.76;95.63;102934.50;5115735;28;20073;-63
2021/12/15 04:45:12;;;;;;;45.30;20.52;;;;;;;8.77;95.67;102937.19;5115557;28;20016;-63
2021/12/15 04:47:37;;;;;;;41.63;20.02;;;;;;;8.80;95.76;102939.09;5115404;28;20030;-65
2021/12/15 04:50:05;;;;;;;43.53;20.77;;;;;;;8.79;95.57;102942.56;5115520;28;20384;-64
2021/12/15 04:52:32;;;;;;;42.75;19.83;;;;;;;8.80;95.57;102938.19;5114528;28;20027;-64
2021/12/15 04:54:59;;;;;;;41.58;20.30;;;;;;;8.80;95.57;102940.81;5115582;28;20027;-63
2021/12/15 04:57:26;;;;;;;42.28;19.95;;;;;;;8.81;95.43;102945.25;5115204;28;20039;-63
2021/12/15 04:59:53;;;;;;;43.95;21.40;;;;;;;8.80;95.56;102944.38;5115345;28;20485;-64
2021/12/15 05:02:20;;;;;;;44.97;20.55;;;;;;;8.82;95.21;102944.44;5115118;28;20102;-64
2021/12/15 05:04:46;;;;;;;41.50;20.02;;;;;;;8.81;95.62;102946.16;5115524;28;20028;-64
2021/12/15 05:07:12;;;;;;;43.95;20.67;;;;;;;8.82;95.41;102941.78;5115283;28;20456;-64
2021/12/15 05:09:38;;;;;;;45.70;19.92;;;;;;;8.84;95.58;102954.25;5115179;28;20027;-64
2021/12/15 05:12:04;;;;;;;44.58;20.30;;;;;;;8.86;95.28;102949.03;5115269;28;20023;-64
2021/12/15 05:14:30;;;;;;;41.10;19.85;;;;;;;8.84;95.14;102951.59;5115057;28;20035;-64
2021/12/15 05:16:55;;;;;;;40.08;19.52;;;;;;;8.84;95.07;102945.44;5114820;28;20495;-64
2021/12/15 05:19:22;;;;;;;40.17;19.50;;;;;;;8.85;95.00;102952.50;5114956;28;20036;-63
2021/12/15 05:21:50;;;;;;;40.60;19.17;;;;;;;8.87;95.00;102958.78;5114976;28;20024;-63
2021/12/15 05:26:55;;;;;;;39.95;20.70;;;;;;;8.86;95.50;102960.47;5114737;28;20035;-64
2021/12/15 05:29:21;;;;;;;40.28;20.45;;;;;;;8.86;95.27;102963.13;5114810;28;20026;-64
2021/12/15 05:31:47;;;;;;;41.10;18.90;;;;;;;8.87;95.14;102958.78;5115000;28;20384;-64
2021/12/15 05:34:13;;;;;;;39.00;18.90;;;;;;;8.88;95.26;102965.84;5114532;28;20027;-64
2021/12/15 05:36:38;;;;;;;42.38;19.27;;;;;;;8.88;95.20;102964.13;5114555;28;20110;-64
2021/12/15 05:39:06;;;;;;;38.00;19.33;;;;;;;8.89;95.35;102963.28;5114643;28;20030;-63
2021/12/15 05:41:35;;;;;;;42.00;20.05;;;;;;;8.88;95.07;102958.84;5114725;28;20077;-63
2021/12/15 05:44:05;;;;;;;37.35;19.05;;;;;;;8.89;94.73;102965.03;5114652;28;20031;-64
2021/12/15 05:46:31;;;;;;;37.80;19.48;;;;;;;8.88;94.97;102964.13;5114228;28;20031;-64
2021/12/15 05:48:56;;;;;;;43.15;18.95;;;;;;;8.87;95.16;102958.78;5114400;28;20088;-63
2021/12/15 05:51:22;;;;;;;41.03;19.30;;;;;;;8.87;95.18;102957.03;5114349;28;20022;-64
2021/12/15 05:53:47;;;;;;;42.78;20.08;;;;;;;8.87;94.78;102957.03;5114224;28;20066;-63
2021/12/15 05:56:18;;;;;;;41.67;19.38;;;;;;;8.87;95.13;102959.69;5114109;28;20048;-64
2021/12/15 05:58:45;;;;;;;41.00;20.23;;;;;;;8.85;95.18;102968.31;5114164;28;20038;-64
2021/12/15 06:01:11;;;;;;;40.33;19.55;;;;;;;8.87;95.30;102964.06;5113994;28;20028;-64
2021/12/15 06:03:37;;;;;;;43.47;20.08;;;;;;;8.85;95.07;102961.31;5114141;28;20119;-64
2021/12/15 06:06:04;;;;;;;41.55;19.35;;;;;;;8.85;95.13;102965.69;5114315;28;20073;-64
2021/12/15 06:08:30;;;;;;;44.63;20.65;;;;;;;8.83;95.22;102964.72;5114112;28;20026;-64
2021/12/15 06:10:56;;;;;;;43.55;20.13;;;;;;;8.84;95.38;102967.44;5113992;28;20020;-64
2021/12/15 06:13:26;;;;;;;43.60;20.00;;;;;;;8.84;95.42;102967.44;5113829;28;20023;-63
2021/12/15 06:15:54;;;;;;;38.63;19.33;;;;;;;8.77;95.42;102954.75;5106268;28;20027;-64
2021/12/15 06:18:20;;;;;;;42.30;19.92;;;;;;;8.84;95.20;102967.44;5113844;28;20032;-64
2021/12/15 06:20:51;;;;;;;43.42;20.42;;;;;;;8.84;95.47;102963.88;5113829;28;20020;-64
2021/12/15 06:23:21;;;;;;;44.80;20.00;;;;;;;8.83;95.22;102967.34;5113959;28;20429;-64
2021/12/15 06:25:58;;;;;;;41.53;19.45;;;;;;;8.84;95.56;102969.16;5113830;28;20024;-64
2021/12/15 06:28:29;;;;;;;45.33;20.13;;;;;;;8.87;95.26;102977.25;5113736;28;20476;-64
2021/12/15 06:30:56;;;;;;;42.97;20.98;;;;;;;8.87;95.23;102979.88;5113806;28;20024;-64
2021/12/15 06:33:23;;;;;;;47.17;21.88;;;;;;;8.88;95.32;102973.75;5113750;28;20031;-64
2021/12/15 06:35:56;;;;;;;48.22;20.55;;;;;;;8.89;95.35;102986.13;5113681;28;20051;-64
2021/12/15 06:38:28;;;;;;;46.55;20.95;;;;;;;8.90;95.49;102986.19;5113626;28;20537;-64
2021/12/15 06:40:53;;;;;;;45.55;20.65;;;;;;;8.87;95.28;102975.50;5113550;28;20035;-64
2021/12/15 06:43:19;;;;;;;49.55;21.38;;;;;;;8.91;94.76;102982.75;5113526;28;20088;-64
2021/12/15 06:59:32;;;;;;;49.65;21.10;;;;;;;8.84;95.53;102983.25;5030966;28;20032;-64
2021/12/15 07:01:58;;;;;;;47.72;21.33;;;;;;;8.86;95.40;102989.47;5030530;28;20025;-64
2021/12/15 07:04:24;;;;;;;46.67;20.70;;;;;;;8.87;95.39;102987.78;5030263;28;20044;-63
2021/12/15 07:06:51;;;;;;;48.00;20.83;;;;;;;8.87;95.69;102995.69;5030887;28;20512;-64
2021/12/15 07:09:18;;;;;;;53.20;21.75;;;;;;;8.87;95.51;102996.59;5030842;28;20029;-63
2021/12/15 07:11:44;;;;;;;50.13;21.90;;;;;;;8.89;95.39;102997.56;5030774;28;20065;-63
2021/12/15 07:14:10;;;;;;;51.95;21.80;;;;;;;8.88;95.40;103003.66;5030071;28;20471;-63
2021/12/15 07:16:40;;;;;;;47.40;21.27;;;;;;;8.88;95.20;103005.41;5031952;28;20216;-64
2021/12/15 07:19:17;;;;;;;54.15;23.10;;;;;;;8.89;95.76;103012.47;5034311;28;20099;-63
2021/12/15 07:21:53;;;;;;;48.53;21.75;;;;;;;8.88;95.49;103011.56;5034702;28;20536;-64
2021/12/15 07:24:19;;;;;;;52.55;22.63;;;;;;;8.89;95.63;103008.09;5037948;28;20082;-63
2021/12/15 07:26:44;;;;;;;52.00;22.40;;;;;;;8.90;95.56;103023.09;5116923;28;20026;-64
2021/12/15 07:29:10;;;;;;;52.70;22.83;;;;;;;8.89;95.71;103025.66;5117121;28;20395;-64
2021/12/15 07:31:36;;;;;;;59.78;21.98;;;;;;;8.87;95.97;103017.69;5116982;28;20478;-64
2021/12/15 07:34:01;;;;;;;51.85;21.67;;;;;;;8.89;95.86;103015.13;5116932;28;20043;-64
2021/12/15 07:36:27;;;;;;;55.97;22.75;;;;;;;8.89;95.83;103016.00;5117029;28;20468;-64
2021/12/15 07:38:54;;;;;;;58.88;22.50;;;;;;;8.89;95.64;103020.38;5117005;28;20091;-64
2021/12/15 07:41:27;;;;;;;54.95;22.30;;;;;;;8.87;95.89;103017.69;5117270;28;20027;-63
2021/12/15 07:43:55;;;;;;;61.47;23.85;;;;;;;8.89;95.46;103030.94;5116828;28;20043;-64
2021/12/15 07:46:20;;;;;;;54.38;25.30;;;;;;;8.87;95.73;103017.69;5116602;28;20045;-63
2021/12/15 07:48:45;;;;;;;57.28;24.25;;;;;;;8.85;95.80;103021.94;5116939;28;20465;-64
2021/12/15 07:51:15;;;;;;;56.42;24.20;;;;;;;8.86;96.30;103025.50;5116731;28;20015;-64
2021/12/15 07:53:42;;;;;;;54.75;23.33;;;;;;;8.87;95.95;103022.97;5116906;28;20120;-64
2021/12/15 07:56:07;;;;;;;56.22;23.00;;;;;;;8.87;96.11;103025.59;5116338;28;20048;-64
2021/12/15 07:58:38;;;;;;;57.22;23.80;;;;;;;8.88;95.95;103030.03;5116567;28;20016;-64
2021/12/15 08:01:06;;;;;;;55.17;23.02;;;;;;;8.88;96.12;103034.41;5116307;28;20024;-63
2021/12/15 08:03:35;;;;;;;53.78;22.73;;;;;;;8.88;96.15;103031.78;5116301;28;20468;-64
2021/12/15 08:06:00;;;;;;;60.22;24.60;;;;;;;8.89;96.08;103025.66;5116189;28;20146;-64
2021/12/15 08:08:26;;;;;;;59.03;24.40;;;;;;;8.90;95.76;103028.38;5116292;28;20028;-64
2021/12/15 08:10:56;;;;;;;58.22;23.27;;;;;;;8.91;96.01;103029.31;5116358;28;20024;-64
2021/12/15 08:13:27;;;;;;;62.75;24.27;;;;;;;8.90;96.14;103033.63;5115842;28;20464;-64
2021/12/15 08:15:53;;;;;;;62.25;25.00;;;;;;;8.92;95.87;103044.28;5116063;28;20016;-63
2021/12/15 08:18:18;;;;;;;66.85;25.33;;;;;;;8.91;96.24;103042.50;5115723;28;20039;-64
2021/12/15 08:20:44;;;;;;;57.00;24.27;;;;;;;8.89;95.77;103037.09;5115570;28;20024;-64
2021/12/15 08:23:10;;;;;;;57.70;26.00;;;;;;;8.90;96.00;103044.19;5115605;28;20024;-65
2021/12/15 08:25:35;;;;;;;62.08;23.13;;;;;;;8.92;95.78;103041.66;5115605;28;20103;-63
2021/12/15 08:28:03;;;;;;;55.75;22.92;;;;;;;8.92;96.02;103047.81;5113965;28;20024;-64
2021/12/15 08:30:30;;;;;;;63.03;24.63;;;;;;;8.93;96.14;103040.81;5097190;28;20020;-63
2021/12/15 08:32:59;;;;;;;60.58;25.08;;;;;;;8.93;96.02;103049.63;5096955;28;20048;-64
2021/12/15 08:35:38;;;;;;;56.95;24.25;;;;;;;8.95;96.03;103050.63;5115515;28;20026;-64
2021/12/15 08:38:05;;;;;;;61.50;25.42;;;;;;;8.95;95.77;103041.78;5115285;28;20027;-64
2021/12/15 08:40:31;;;;;;;61.95;25.85;;;;;;;8.96;95.72;103043.63;5115212;28;20039;-64
2021/12/15 08:42:58;;;;;;;62.05;25.90;;;;;;;8.96;95.77;103046.25;5115039;28;20032;-64
2021/12/15 08:45:26;;;;;;;63.10;25.80;;;;;;;8.96;96.03;103049.81;5115256;28;20027;-64
2021/12/15 08:47:52;;;;;;;59.60;24.58;;;;;;;8.97;95.73;103051.59;5115209;28;20031;-64
2021/12/15 08:50:23;;;;;;;61.88;26.60;;;;;;;8.99;96.17;103047.34;5115156;28;20043;-63
2021/12/15 08:52:49;;;;;;;65.85;27.27;;;;;;;8.97;95.61;103037.53;5115074;28;20318;-64
2021/12/15 08:55:15;;;;;;;59.25;26.40;;;;;;;9.02;95.88;103054.47;5115024;28;20084;-64
2021/12/15 08:57:47;;;;;;;58.20;24.20;;;;;;;9.01;95.70;103044.78;5114745;28;20052;-64
2021/12/15 09:00:13;;;;;;;64.32;25.55;;;;;;;9.06;95.65;103058.19;5114936;28;20030;-64
2021/12/15 09:02:39;;;;;;;60.47;24.45;;;;;;;9.07;95.60;103057.34;5114848;28;20031;-64
2021/12/15 09:05:06;;;;;;;59.05;25.85;;;;;;;9.07;95.52;103049.44;5115089;28;20372;-64
2021/12/15 09:07:32;;;;;;;55.90;24.75;;;;;;;9.09;95.79;103061.00;5114869;28;20035;-64
2021/12/15 09:09:57;;;;;;;67.15;26.48;;;;;;;9.09;95.48;103066.28;5096398;28;20032;-64
2021/12/15 09:12:23;;;;;;;59.75;25.90;;;;;;;9.09;95.48;103053.09;5114686;28;20031;-64
2021/12/15 09:14:49;;;;;;;60.85;26.05;;;;;;;9.08;95.53;103060.09;5114549;28;20118;-64
2021/12/15 09:17:14;;;;;;;58.55;26.30;;;;;;;9.11;95.75;103068.16;5114614;28;20048;-63
2021/12/15 09:19:40;;;;;;;57.08;25.52;;;;;;;9.13;95.47;103062.97;5114505;28;20464;-64
2021/12/15 09:22:06;;;;;;;59.33;25.50;;;;;;;9.16;95.39;103063.09;5114538;28;20031;-63
2021/12/15 09:24:34;;;;;;;57.72;24.90;;;;;;;9.16;95.81;103074.56;5114422;28;20038;-64
2021/12/15 09:27:05;;;;;;;57.78;25.75;;;;;;;9.17;95.46;103076.41;5114306;28;20028;-64
2021/12/15 09:29:31;;;;;;;56.22;25.20;;;;;;;9.18;95.31;103080.84;5114464;28;20023;-64
2021/12/15 09:31:57;;;;;;;60.08;26.48;;;;;;;9.19;95.24;103081.75;5114488;28;20472;-63
2021/12/15 09:34:23;;;;;;;61.05;26.83;;;;;;;9.20;95.43;103087.09;5114154;28;20383;-63
2021/12/15 09:36:51;;;;;;;58.50;26.00;;;;;;;9.21;95.38;103081.00;5114140;28;20027;-64
2021/12/15 09:39:19;;;;;;;59.22;25.48;;;;;;;9.22;95.41;103082.81;5113864;28;20027;-64
2021/12/15 09:41:46;;;;;;;57.42;26.08;;;;;;;9.26;95.48;103092.69;5113941;28;20059;-64
2021/12/15 09:44:16;;;;;;;56.85;25.83;;;;;;;9.30;95.41;103090.22;5114217;28;20028;-64
2021/12/15 10:03:07;;;;;;;53.95;24.10;;;;;;;9.43;95.02;103092.69;5113714;28;20057;-64
2021/12/15 10:05:46;;;;;;;58.78;26.33;;;;;;;9.47;95.05;103087.63;5113785;28;20085;-64
2021/12/15 10:19:25;;;;;;;55.97;25.45;;;;;;;9.62;94.35;103094.50;5113510;28;20388;-64
2021/12/15 10:22:25;;;;;;;56.47;26.73;;;;;;;9.65;94.50;103087.66;5113355;28;20026;-63
2021/12/15 10:24:59;;;;;;;57.42;28.30;;;;;;;9.66;94.36;103093.84;5113311;28;20038;-63
2021/12/15 10:27:49;;;;;;;53.92;26.15;;;;;;;9.70;94.33;103098.44;5113243;28;20020;-64
2021/12/15 10:30:21;;;;;;;58.08;26.90;;;;;;;9.72;94.25;103095.06;5113233;28;20085;-64
2021/12/15 10:32:52;;;;;;;56.80;26.23;;;;;;;9.74;94.01;103101.31;5113272;28;20106;-63
2021/12/15 10:35:28;;;;;;;53.60;27.20;;;;;;;9.78;93.95;103090.06;5113376;28;20022;-63
2021/12/15 10:38:19;;;;;;;50.35;26.42;;;;;;;9.81;93.76;103091.03;5113265;28;20072;-64
2021/12/15 10:40:48;;;;;;;55.88;27.35;;;;;;;9.86;93.77;103095.75;5094876;28;20031;-64
2021/12/15 10:43:14;;;;;;;55.45;27.38;;;;;;;9.88;93.64;103091.44;5113074;28;20051;-63
2021/12/15 10:45:43;;;;;;;52.20;27.33;;;;;;;9.91;93.70;103095.97;5113117;28;20034;-64
2021/12/15 10:48:15;;;;;;;50.55;26.95;;;;;;;9.96;93.32;103091.81;5113045;28;20049;-64
2021/12/15 10:50:42;;;;;;;54.13;29.00;;;;;;;9.98;93.11;103090.19;5112382;28;20073;-64
2021/12/15 10:53:08;;;;;;;48.97;26.48;;;;;;;9.97;93.04;103094.53;5112918;28;20027;-64
2021/12/15 10:55:36;;;;;;;52.78;27.50;;;;;;;9.99;93.04;103092.88;5112766;28;20080;-64
2021/12/15 10:58:32;;;;;;;53.22;26.92;;;;;;;10.02;93.54;103105.31;5112949;28;20089;-64
2021/12/15 11:00:59;;;;;;;54.60;28.88;;;;;;;10.01;93.05;103096.47;5112962;28;20484;-64
2021/12/15 11:03:33;;;;;;;49.72;27.13;;;;;;;10.02;93.04;103094.75;5112809;28;20035;-64
2021/12/15 11:05:58;;;;;;;49.03;25.92;;;;;;;10.06;92.97;103098.44;5112923;28;20027;-64
2021/12/15 11:08:24;;;;;;;53.58;27.40;;;;;;;10.07;92.70;103095.91;5112896;28;20024;-63
2021/12/15 11:10:51;;;;;;;49.42;26.60;;;;;;;10.08;93.00;103095.06;5113058;28;20122;-64
2021/12/15 11:13:16;;;;;;;52.10;27.70;;;;;;;10.08;92.73;103088.88;5112815;28;20036;-64
2021/12/15 11:15:48;;;;;;;52.88;27.70;;;;;;;10.14;92.78;103097.09;5112898;28;20088;-64
2021/12/15 11:18:17;;;;;;;54.60;27.85;;;;;;;10.16;92.52;103090.16;5113034;28;20024;-64
2021/12/15 11:20:56;;;;;;;57.30;29.23;;;;;;;10.18;92.94;103088.47;5112778;28;20388;-64
2021/12/15 11:23:23;;;;;;;54.38;27.75;;;;;;;10.17;92.21;103098.16;5112882;28;20028;-64
2021/12/15 11:25:50;;;;;;;54.13;27.65;;;;;;;10.18;92.27;103097.31;5112773;28;20111;-63
2021/12/15 11:28:33;;;;;;;54.55;28.58;;;;;;;10.19;92.30;103093.84;5112770;28;20031;-64
2021/12/15 11:31:12;;;;;;;51.47;27.40;;;;;;;10.21;92.13;103091.28;5112548;28;20031;-64
2021/12/15 11:33:42;;;;;;;54.10;29.35;;;;;;;10.23;92.06;103084.31;5112559;28;20448;-63
2021/12/15 11:36:21;;;;;;;49.40;27.67;;;;;;;10.25;92.19;103093.28;5112811;28;20038;-64
2021/12/15 11:38:50;;;;;;;51.28;27.23;;;;;;;10.26;92.06;103084.50;5112700;28;20115;-64
2021/12/15 11:41:26;;;;;;;53.63;26.92;;;;;;;10.26;92.00;103080.13;5112883;28;20027;-64
2021/12/15 11:43:51;;;;;;;50.35;27.65;;;;;;;10.30;91.62;103078.53;5112583;28;20016;-64
2021/12/15 11:46:24;;;;;;;48.65;27.65;;;;;;;10.30;92.09;103083.81;5112602;28;20027;-64
2021/12/15 11:48:54;;;;;;;47.58;26.55;;;;;;;10.32;91.61;103073.31;5112507;28;20031;-64
2021/12/15 11:51:49;;;;;;;50.88;28.25;;;;;;;10.38;91.59;103085.09;5112611;28;20031;-64
2021/12/15 11:54:29;;;;;;;52.15;28.05;;;;;;;10.39;91.56;103089.53;5112416;28;20027;-63
2021/12/15 11:57:04;;;;;;;50.13;26.83;;;;;;;10.41;91.09;103082.59;5112366;28;20047;-63
2021/12/15 11:59:42;;;;;;;46.67;27.15;;;;;;;10.42;91.36;103080.88;5112355;28;20031;-64
2021/12/15 12:02:20;;;;;;;46.63;25.30;;;;;;;10.42;90.52;103067.66;5113871;28;20040;-64
2021/12/15 12:04:46;;;;;;;44.47;25.83;;;;;;;10.42;90.90;103072.94;5116024;28;20519;-64
2021/12/15 12:07:29;;;;;;;48.40;26.13;;;;;;;10.43;91.00;103074.75;5116197;28;20020;-64
2021/12/15 12:09:58;;;;;;;46.83;25.50;;;;;;;10.42;90.70;103071.19;5115895;28;20473;-64
2021/12/15 12:12:30;;;;;;;41.60;25.02;;;;;;;10.41;90.33;103066.75;5115915;28;20172;-64
2021/12/15 12:14:56;;;;;;;46.95;26.95;;;;;;;10.42;90.27;103071.19;5115735;28;20128;-64
2021/12/15 12:17:25;;;;;;;42.80;24.30;;;;;;;10.42;90.14;103068.56;5115745;28;20428;-64
2021/12/15 12:20:13;;;;;;;43.40;25.70;;;;;;;10.43;90.47;103069.44;5115809;28;20023;-63
2021/12/15 12:22:40;;;;;;;43.90;26.55;;;;;;;10.42;90.53;103067.66;5115810;28;20107;-63
2021/12/15 12:25:10;;;;;;;45.80;25.42;;;;;;;10.43;90.21;103064.16;5115712;28;20043;-64
2021/12/15 12:27:40;;;;;;;42.03;26.27;;;;;;;10.46;90.47;103065.22;5115310;28;20027;-64
2021/12/15 12:30:11;;;;;;;42.20;24.75;;;;;;;10.50;90.30;103067.19;5114870;28;20019;-63
2021/12/15 12:32:38;;;;;;;40.53;24.83;;;;;;;10.54;90.42;103062.94;5114192;28;20042;-63
2021/12/15 12:35:10;;;;;;;39.85;25.05;;;;;;;10.56;89.85;103061.25;5114978;28;20039;-63
2021/12/15 12:37:37;;;;;;;42.23;24.67;;;;;;;10.56;89.75;103057.72;5115306;28;20027;-63
2021/12/15 12:40:29;;;;;;;43.10;24.50;;;;;;;10.56;90.08;103055.97;5115326;28;20027;-64
2021/12/15 12:42:55;;;;;;;37.63;23.60;;;;;;;10.56;89.43;103055.06;5115315;28;20058;-64
2021/12/15 12:45:38;;;;;;;40.60;24.85;;;;;;;10.56;90.15;103057.72;5115327;28;20050;-64